KMJX/MJX METAR and TAF weather

Enter ICAO airport designator
Station Type Date Time Source
KMJX METAR 2018/12/13 05:56 UTC NOAA

KMJX 130556Z AUTO 00000KT 10SM CLR M03/M04 A3027 RMK AO2 SLP258 T10281039 11017 21050 51005 FZRANO


Station Type Date Time Source
KMJX Decoded METAR 2018/12/13 05:56 UTC NOAA

Station name not available
Dec 13, 2018 - 12:56 AM EST / 2018.12.13 0556 UTC
Wind: Calm:0
Visibility: 10 mile(s):0
Sky conditions: clear
Temperature: 27.0 F (-2.8 C)
Dew Point: 25.0 F (-3.9 C)
Relative Humidity: 92%
Pressure (altimeter): 30.27 in. Hg (1025 hPa)
Pressure tendency: 0.01 inches (0.5 hPa) higher than three hours ago
ob: KMJX 130556Z AUTO 00000KT 10SM CLR M03/M04 A3027 RMK AO2 SLP258 T10281039 11017 21050 51005 FZRANO
cycle: 6

Station Type Date Time Source
KMJX TAF UTC NOAA

Error!


Example: see airport list